Latest Weather Observations for Gannett Cay

IDQ60801

Issued at 10:32 pm EST Saturday 13 February 2016 (issued every 30 minutes, with the page automatically refreshed every 10 minutes)

About weather observations | Map of weather stations | Latest weather observations for QLD | Other Formats
Station Details ID: 200831 Name: GANNET CAY Lat: -21.98 Lon: 152.47 Height: 2.3 m
Data from the previous 72 hours. | See also: Recent months for locations in Queensland
Date/Time
EST
Temp
°C
App
Temp
°C
Dew
Point
Rel
Hum
%
Delta-T
°C
Wind Press
QNH
hPa
Press
MSL
hPa
Rain
since 9 am
mm
Dir
 
Spd
km/h
Gust
km/h
Spd
kts
Gust
kts
13/10:30pm 26.1 - - - - SSE 41 46 22 25 1005.7 - -
13/10:29pm 26.2 - - - - SSE 41 44 22 24 1005.6 1005.8 -
13/10:00pm 26.2 - - - - S 41 48 22 26 1005.7 - -
13/09:30pm 26.3 - - - - S 44 52 24 28 1006.0 - -
13/09:29pm 26.2 - - - - S 44 - 24 - - 1006.2 -
13/09:00pm 26.3 - - - - S 44 50 24 27 1006.0 - -
13/08:30pm 26.3 - - - - S 43 48 23 26 1005.9 - -
13/08:29pm 26.3 - - - - S 41 - 22 - - 1006.1 -
13/08:00pm 26.4 - - - - S 46 54 25 29 1005.7 - -
13/07:30pm 26.7 - - - - S 46 52 25 28 1005.6 - -
13/07:29pm 26.6 - - - - S 44 - 24 - - 1005.8 -
13/07:00pm 26.6 - - - - S 44 54 24 29 1005.0 - -
13/06:30pm 26.8 - - - - S 44 52 24 28 1004.6 - -
13/06:29pm 26.9 - - - - S 44 - 24 - - 1004.8 -
13/06:00pm 26.6 - - - - S 44 50 24 27 1004.3 - -
13/05:30pm 27.2 - - - - S 41 48 22 26 1004.0 - -
13/05:29pm 27.2 - - - - S 41 - 22 - - 1004.2 -
13/05:00pm 27.0 - - - - S 39 46 21 25 1003.7 - -
13/04:30pm 27.2 - - - - S 39 43 21 23 1003.5 - -
13/04:29pm 27.0 - - - - S 39 - 21 - - 1003.7 -
13/04:00pm 27.0 - - - - S 39 46 21 25 1003.4 - -
13/03:30pm 26.9 - - - - S 41 46 22 25 1003.5 - -
13/03:29pm 26.8 - - - - S 41 - 22 - - 1003.7 -
13/03:00pm 26.8 - - - - S 41 44 22 24 1003.6 - -
13/02:30pm 27.0 - - - - S 39 44 21 24 1003.9 - -
13/02:29pm 26.9 - - - - S 39 - 21 - - 1004.0 -
13/02:00pm 27.2 - - - - SSE 35 43 19 23 1004.0 - -
13/01:30pm 27.4 - - - - SSE 33 39 18 21 1004.3 - -
13/01:29pm 27.3 - - - - SSE 33 - 18 - - 1004.5 -
13/01:00pm 27.1 - - - - SSE 37 44 20 24 1004.4 - -
13/12:30pm 27.1 - - - - SSE 37 43 20 23 1004.6 - -
13/12:29pm 27.1 - - - - SSE 37 - 20 - - 1004.8 -
13/12:00pm 27.0 - - - - SSE 39 46 21 25 1004.9 - -
13/11:30am 27.1 - - - - S 41 46 22 25 1005.1 - -
13/11:29am 27.2 - - - - S 41 - 22 - - 1005.3 -
13/11:00am 27.1 - - - - SSE 43 48 23 26 1005.4 - -
13/10:30am 27.3 - - - - SSE 41 50 22 27 1005.6 - -
13/10:29am 27.2 - - - - SSE 41 - 22 - - 1005.8 -
13/10:00am 27.3 - - - - S 41 48 22 26 1005.7 - -
13/09:30am 27.2 - - - - S 41 48 22 26 1005.7 - -
13/09:29am 27.2 - - - - S 41 - 22 - - 1005.9 -
13/09:00am 27.0 - - - - S 44 50 24 27 1005.7 - -
13/08:30am 26.9 - - - - S 48 54 26 29 1005.7 - -
13/08:29am 26.8 - - - - S 48 - 26 - - 1005.9 -
13/08:00am 27.0 - - - - S 44 52 24 28 1005.6 - -
13/07:30am 26.9 - - - - S 48 56 26 30 1005.5 - -
13/07:29am 26.9 - - - - S 48 - 26 - - 1005.7 -
13/07:00am 26.9 - - - - S 46 54 25 29 1005.2 - -
13/06:30am 26.8 - - - - S 52 57 28 31 1005.2 - -
13/06:29am 26.8 - - - - S 52 - 28 - - 1005.4 -
13/06:00am 26.6 - - - - S 50 56 27 30 1004.8 - -
13/05:30am 26.7 - - - - S 50 57 27 31 1004.5 - -
13/05:29am 26.7 - - - - S 50 - 27 - - 1004.7 -
13/05:00am 26.8 - - - - S 50 57 27 31 1004.2 - -
13/04:30am 26.6 - - - - SSE 52 57 28 31 1004.0 - -
13/04:29am 26.7 - - - - SSE 52 - 28 - - 1004.2 -
13/04:00am 26.6 - - - - S 52 57 28 31 1004.1 - -
13/03:30am 26.6 - - - - S 52 59 28 32 1003.9 - -
13/03:29am 26.6 - - - - S 52 - 28 - - 1004.1 -
13/03:00am 26.6 - - - - S 48 57 26 31 1004.1 - -
13/02:30am 26.7 - - - - SSE 50 56 27 30 1004.4 - -
13/02:29am 26.6 - - - - SSE 50 - 27 - - 1004.6 -
13/02:00am 26.7 - - - - SSE 50 56 27 30 1004.6 - -
13/01:30am 26.8 - - - - SSE 46 56 25 30 1004.9 - -
13/01:29am 26.8 - - - - S 46 - 25 - - 1005.2 -
13/01:00am 27.0 - - - - SSE 46 56 25 30 1005.5 - -
13/12:30am 26.9 - - - - SSE 46 54 25 29 1005.8 - -
13/12:29am 27.0 - - - - SSE 46 - 25 - - 1006.1 -
13/12:00am 26.6 - - - - SSE 50 56 27 30 1006.0 - -
 
Date/Time
EST
Temp
°C
App
Temp
°C
Dew
Point
Rel
Hum
%
Delta-T
°C
Wind Press
QNH
hPa
Press
MSL
hPa
Rain
since 9 am
mm
Dir
 
Spd
km/h
Gust
km/h
Spd
kts
Gust
kts
12/11:30pm 26.8 - - - - SSE 48 56 26 30 1006.1 - -
12/11:29pm 26.9 - - - - SSE 48 - 26 - - 1006.4 -
12/11:00pm 27.0 - - - - SSE 50 59 27 32 1006.5 - -
12/10:30pm 26.6 - - - - SSE 48 56 26 30 1007.2 - -
12/10:29pm 26.6 - - - - SSE 48 - 26 - - 1007.4 -
12/10:00pm 27.0 - - - - SSE 52 59 28 32 1006.9 - -
12/09:30pm 26.8 - - - - SSE 48 56 26 30 1007.0 - -
12/09:29pm 26.7 - - - - SSE 48 - 26 - - 1007.2 -
12/09:00pm 26.3 - - - - SSE 44 52 24 28 1007.3 - -
12/08:30pm 26.0 - - - - SSE 46 54 25 29 1007.5 - -
12/08:29pm 26.1 - - - - SSE 44 - 24 - - 1007.7 -
12/08:00pm 26.0 - - - - SSE 43 50 23 27 1007.6 - -
12/07:30pm 25.0 - - - - SSE 46 54 25 29 1007.4 - -
12/07:29pm 25.1 - - - - SSE 46 - 25 - - 1007.6 -
12/07:00pm 24.6 - - - - SE 48 59 26 32 1007.1 - -
12/06:30pm 26.2 - - - - SSE 46 54 25 29 1006.9 - -
12/06:29pm 26.1 - - - - SSE 46 - 25 - - 1007.1 -
12/06:00pm 25.9 - - - - SSE 50 57 27 31 1006.6 - -
12/05:30pm 26.1 - - - - SSE 56 61 30 33 1006.1 - -
12/05:29pm 26.2 - - - - SE 54 - 29 - - 1006.3 -
12/05:25pm 25.7 - - - - SSE 54 61 29 33 1006.1 - -
12/05:00pm 24.2 - - - - S 56 67 30 36 1005.8 - -
12/04:58pm 23.9 - - - - S 56 67 30 36 1005.7 - -
12/04:30pm 25.5 - - - - SE 50 59 27 32 1005.5 - -
12/04:29pm 25.3 - - - - SE 52 - 28 - - 1005.8 -
12/04:00pm 25.7 - - - - SE 39 50 21 27 1005.4 - -
12/03:30pm 24.5 - - - - SE 37 48 20 26 1005.8 - -
12/03:29pm 24.7 - - - - SE 37 - 20 - - 1006.1 -
12/03:00pm 24.6 - - - - SE 43 50 23 27 1005.9 - -
12/02:30pm 23.4 - - - - SE 52 61 28 33 1005.9 - -
12/02:29pm 23.5 - - - - SE 52 - 28 - - 1006.1 -
12/02:22pm 24.4 - - - - SE 32 59 17 32 1005.9 - -
12/02:00pm 24.3 - - - - ESE 46 54 25 29 1005.9 - -
12/01:53pm 25.2 - - - - SE 44 50 24 27 1006.0 - -
12/01:30pm 26.8 - - - - S 39 44 21 24 1005.7 - -
12/01:29pm 26.8 - - - - S 39 - 21 - - 1006.0 -
12/01:00pm 26.5 - - - - SSE 41 48 22 26 1006.1 - -
12/12:30pm 26.6 - - - - SSE 44 52 24 28 1006.4 - -
12/12:29pm 26.6 - - - - SSE 44 - 24 - - 1006.6 -
12/12:00pm 26.1 - - - - SSE 50 57 27 31 1006.7 - -
12/11:30am 27.3 - - - - SSE 43 50 23 27 1007.0 - -
12/11:29am 27.3 - - - - SSE 43 - 23 - - 1007.2 -
12/11:00am 27.3 - - - - SSE 48 54 26 29 1007.3 - -
12/10:30am 27.2 - - - - SSE 48 56 26 30 1007.5 - -
12/10:29am 27.2 - - - - SSE 48 - 26 - - 1007.7 -
12/10:00am 27.0 - - - - SE 46 54 25 29 1007.7 - -
12/09:30am 26.9 - - - - SSE 48 56 26 30 1007.8 - -
12/09:29am 27.0 - - - - SSE 48 - 26 - - 1008.0 -
12/09:00am 26.7 - - - - SSE 46 56 25 30 1007.9 - -
12/08:30am 26.5 - - - - S 48 59 26 32 1007.9 - -
12/08:29am 26.4 - - - - S 48 - 26 - - 1008.0 -
12/08:00am 26.8 - - - - SSE 48 57 26 31 1007.6 - -
12/07:30am 26.7 - - - - SSE 46 56 25 30 1007.6 - -
12/07:29am 26.8 - - - - SSE 48 - 26 - - 1007.8 -
12/07:00am 26.3 - - - - SSE 48 57 26 31 1007.4 - -
12/06:30am 26.0 - - - - SE 54 61 29 33 1007.2 - -
12/06:29am 26.1 - - - - SE 54 - 29 - - 1007.4 -
12/06:00am 26.9 - - - - SSE 50 57 27 31 1006.7 - -
12/05:30am 26.6 - - - - SSE 50 63 27 34 1006.6 - -
12/05:29am 26.7 - - - - SSE 52 - 28 - - 1006.8 -
12/05:00am 26.9 - - - - SSE 48 57 26 31 1006.2 - -
12/04:30am 26.6 - - - - SSE 50 57 27 31 1006.1 - -
12/04:29am 26.6 - - - - SSE 50 - 27 - - 1006.2 -
12/04:00am 26.6 - - - - SSE 52 61 28 33 1006.1 - -
12/03:30am 26.5 - - - - SSE 46 54 25 29 1006.1 - -
12/03:29am 26.5 - - - - SSE 46 - 25 - - 1006.3 -
12/03:00am 26.5 - - - - SSE 48 57 26 31 1006.2 - -
12/02:30am 26.5 - - - - SSE 48 57 26 31 1006.2 - -
12/02:29am 26.5 - - - - SSE 48 - 26 - - 1006.4 -
12/02:00am 26.4 - - - - SSE 48 54 26 29 1006.3 - -
12/01:30am 26.8 - - - - SSE 43 50 23 27 1006.5 - -
12/01:29am 26.8 - - - - SSE 43 - 23 - - 1006.8 -
12/01:00am 26.9 - - - - SSE 43 50 23 27 1007.0 - -
12/12:30am 27.1 - - - - SSE 41 48 22 26 1007.1 - -
12/12:29am 27.1 - - - - SSE 41 - 22 - - 1007.3 -
12/12:00am 27.1 - - - - SSE 39 44 21 24 1007.4 - -
 
Date/Time
EST
Temp
°C
App
Temp
°C
Dew
Point
Rel
Hum
%
Delta-T
°C
Wind Press
QNH
hPa
Press
MSL
hPa
Rain
since 9 am
mm
Dir
 
Spd
km/h
Gust
km/h
Spd
kts
Gust
kts
11/11:30pm 27.2 - - - - SSE 41 46 22 25 1007.6 - -
11/11:29pm 27.3 - - - - SSE 41 - 22 - - 1007.8 -
11/11:00pm 27.3 - - - - SSE 39 46 21 25 1007.9 - -
11/10:30pm 27.3 - - - - SSE 41 46 22 25 1008.0 - -
11/10:29pm 27.3 - - - - SSE 41 - 22 - - 1008.2 -
11/10:00pm 27.3 - - - - SSE 39 46 21 25 1008.0 - -
11/09:30pm 26.8 - - - - SSE 30 39 16 21 1007.9 - -
11/09:29pm 26.6 - - - - SSE 30 - 16 - - 1008.1 -
11/09:00pm 25.7 - - - - SSE 41 48 22 26 1007.8 - -
11/08:30pm 27.3 - - - - SSE 43 46 23 25 1007.5 - -
11/08:29pm 27.2 - - - - SSE 43 - 23 - - 1007.7 -
11/08:00pm 27.3 - - - - SSE 43 50 23 27 1007.4 - -
11/07:30pm 27.0 - - - - SSE 41 46 22 25 1007.4 - -
11/07:29pm 27.0 - - - - SSE 41 - 22 - - 1007.6 -
11/07:00pm 27.0 - - - - SSE 39 46 21 25 1007.3 - -
11/06:30pm 26.9 - - - - SSE 37 43 20 23 1007.1 - -
11/06:29pm 26.9 - - - - SSE 37 - 20 - - 1007.3 -
11/06:00pm 27.3 - - - - SSE 41 46 22 25 1006.8 - -
11/05:30pm 27.5 - - - - SSE 43 48 23 26 1006.6 - -
11/05:29pm 27.5 - - - - SSE 43 - 23 - - 1006.8 -
11/05:00pm 27.5 - - - - SSE 41 46 22 25 1006.3 - -
11/04:30pm 27.4 - - - - SSE 39 46 21 25 1006.0 - -
11/04:29pm 27.4 - - - - SSE 39 - 21 - - 1006.2 -
11/04:00pm 27.3 - - - - SSE 39 46 21 25 1006.1 - -
11/03:30pm 27.6 - - - - SSE 35 41 19 22 1006.1 - -
11/03:29pm 27.6 - - - - SSE 35 - 19 - - 1006.4 -
11/03:00pm 27.5 - - - - SSE 37 43 20 23 1006.4 - -
11/02:30pm 27.4 - - - - SSE 37 43 20 23 1006.4 - -
11/02:29pm 27.5 - - - - SSE 37 - 20 - - 1006.6 -
11/02:00pm 27.5 - - - - SSE 37 43 20 23 1006.4 - -
11/01:30pm 27.6 - - - - SSE 35 43 19 23 1006.6 - -
11/01:29pm 27.7 - - - - SSE 37 - 20 - - 1006.8 -
11/01:00pm 27.6 - - - - SSE 37 43 20 23 1006.7 - -
11/12:30pm 27.7 - - - - SSE 37 43 20 23 1007.0 - -
11/12:29pm 27.6 - - - - SSE 37 - 20 - - 1007.2 -
11/12:00pm 27.6 - - - - SE 37 41 20 22 1007.2 - -
11/11:30am 27.7 - - - - SSE 35 41 19 22 1007.4 - -
11/11:29am 27.7 - - - - SSE 33 - 18 - - 1007.7 -
11/11:00am 27.5 - - - - SSE 35 41 19 22 1007.8 - -
11/10:30am 27.6 - - - - SSE 35 41 19 22 1007.9 - -
11/10:29am 27.5 - - - - SSE 35 - 19 - - 1008.1 -
11/10:00am 27.6 - - - - SSE 33 41 18 22 1008.1 - -
11/09:30am 27.4 - - - - SE 35 41 19 22 1008.1 - -
11/09:29am 27.5 - - - - SE 33 - 18 - - 1008.3 -
11/09:00am 27.2 - - - - SSE 35 39 19 21 1008.1 - -
11/08:30am 27.3 - - - - SSE 41 46 22 25 1007.9 - -
11/08:29am 27.2 - - - - SSE 41 - 22 - - 1008.1 -
11/08:00am 27.3 - - - - SSE 39 44 21 24 1007.9 - -
11/07:30am 27.1 - - - - SSE 39 44 21 24 1007.8 - -
11/07:29am 27.1 - - - - SSE 39 - 21 - - 1008.0 -
11/07:00am 27.0 - - - - SSE 37 44 20 24 1007.6 - -
11/06:30am 26.9 - - - - SSE 37 43 20 23 1007.1 - -
11/06:29am 26.9 - - - - SSE 37 - 20 - - 1007.3 -
11/06:00am 26.8 - - - - SE 43 46 23 25 1006.7 - -
11/05:30am 26.8 - - - - SE 41 46 22 25 1006.5 - -
11/05:29am 26.8 - - - - SE 41 - 22 - - 1006.6 -
11/05:00am 26.8 - - - - SE 39 46 21 25 1006.4 - -
11/04:30am 26.7 - - - - SE 41 46 22 25 1006.3 - -
11/04:29am 26.7 - - - - SE 41 - 22 - - 1006.6 -
11/04:00am 26.7 - - - - SE 43 50 23 27 1006.2 - -
11/03:30am 26.9 - - - - SE 43 48 23 26 1006.1 - -
11/03:29am 26.8 - - - - SE 43 - 23 - - 1006.3 -
11/03:00am 26.8 - - - - SE 39 46 21 25 1006.4 - -
11/02:30am 26.8 - - - - SE 41 46 22 25 1006.4 - -
11/02:29am 26.7 - - - - SE 41 - 22 - - 1006.6 -
11/02:00am 26.8 - - - - SE 41 50 22 27 1006.5 - -
11/01:30am 26.9 - - - - SE 41 48 22 26 1006.7 - -
11/01:29am 26.9 - - - - SE 41 - 22 - - 1006.9 -
11/01:00am 26.8 - - - - SSE 43 48 23 26 1006.9 - -
11/12:30am 26.7 - - - - SSE 43 48 23 26 1007.3 - -
11/12:29am 26.7 - - - - SSE 41 - 22 - - 1007.5 -
11/12:00am 26.9 - - - - SE 43 48 23 26 1007.6 - -
 
Date/Time
EST
Temp
°C
App
Temp
°C
Dew
Point
Rel
Hum
%
Delta-T
°C
Wind Press
QNH
hPa
Press
MSL
hPa
Rain
since 9 am
mm
Dir
 
Spd
km/h
Gust
km/h
Spd
kts
Gust
kts
10/11:30pm 27.0 - - - - SE 41 48 22 26 1008.0 - -
10/11:29pm 27.0 - - - - SE 41 - 22 - - 1008.2 -
10/11:00pm 27.0 - - - - SE 43 50 23 27 1008.3 - -

Other Formats:

Comma delimited format used in spreadsheet applications
http://www.bom.gov.au/fwo/IDQ60801/IDQ60801.94379.axf

JavaScript Object Notation format (JSON) in row-major order
http://www.bom.gov.au/fwo/IDQ60801/IDQ60801.94379.json